Vers la page d'accueil de NAV CANADA Ouverture d'une nouvelle session Chercher sur le site AWWS Clause de non-reponsabilité To the equivalent English page Trucs et astuces FAQ Quoi de neuf sur le site Vers la section Prévisions et observations / NOTAM Vers le site web pour <<Déposer un plan de vol>> Publications et liens importants Mise à jour du profil d'usager Numéros de téléphone des FIC Mes données météo personnelles Données météo de route Données météo régionales Données météo locales Vers la section Prévisions et observations / NOTAM
Requête générée le 2020/07/09 à 12:01:10 UTC. L'information météorologique disponible à ce moment est affichée.

METAR/TAF

Si vous notez des différences entre le METAR/TAF codé et le METAR/TAF en langage clair, veuillez utiliser la version codée. Les bulletins LWIS ne sont pas décodés en langage clair.

MONTREAL INTL (MIRABEL)/QC    

METAR CYMX 091100Z 00000KT 4SM BR FEW005 FEW100 SCT250 21/20 A2994 RMK SF1ACC1C SF TR ACC TR TWR VIS 15 FG IN VLYS SLP138 DENSITY ALT 1000FT=
METAR
LIEU
CYMX - MONTREAL INTL (MIRABEL)/QC
DATE - HEURE
09 JUILLET 2020 - 1100 UTC
VENT
CALME
VISIBILITE
4 MILLES TERR.
PORTEE VISUELLE DE PISTE
METEO
BRUME
NEBULOSITE
QUELQUES NUAGES (1/8 - 2/8) 500  PI
QUELQUES NUAGES (1/8 - 2/8) 10000  PI
NUAGES EPARS (3/8 - 4/8) 25000  PI
TEMP / PT DE ROSEE
21 C / 20 C
ALTIMETRE
29.94 PO HG
TEMPS RECENT
CISAILLEMENT

SPECI CYMX 091014Z 00000KT 3SM PRFG FEW001 FEW120 FEW220 19/19 A2993 RMK SF1ACC I1 ACC TR VIS E 1 TWR VIS 15 SLP136 DENSITY ALT 800 FT=
SPECI
LIEU
CYMX - MONTREAL INTL (MIRABEL)/QC
DATE - HEURE
09 JUILLET 2020 - 1014 UTC
VENT
CALME
VISIBILITE
3 MILLES TERR.
PORTEE VISUELLE DE PISTE
METEO
COUVERTURE PARTIELLE DE BROUILLARD
NEBULOSITE
QUELQUES NUAGES (1/8 - 2/8) 100  PI
QUELQUES NUAGES (1/8 - 2/8) 12000  PI
QUELQUES NUAGES (1/8 - 2/8) 22000  PI
TEMP / PT DE ROSEE
19 C / 19 C
ALTIMETRE
29.93 PO HG
TEMPS RECENT
CISAILLEMENT

METAR CYMX 091000Z 00000KT 4SM PRFG FEW130 FEW230 18/18 A2992 RMK ACC1CI1 ACC T VIS E 2 TWR VIS 15 SLP134 DENSITY ALT 800FT=
METAR
LIEU
CYMX - MONTREAL INTL (MIRABEL)/QC
DATE - HEURE
09 JUILLET 2020 - 1000 UTC
VENT
CALME
VISIBILITE
4 MILLES TERR.
PORTEE VISUELLE DE PISTE
METEO
COUVERTURE PARTIELLE DE BROUILLARD
NEBULOSITE
QUELQUES NUAGES (1/8 - 2/8) 13000  PI
QUELQUES NUAGES (1/8 - 2/8) 23000  PI
TEMP / PT DE ROSEE
18 C / 18 C
ALTIMETRE
29.92 PO HG
TEMPS RECENT
CISAILLEMENT

SPECI CYMX 091003Z 00000KT 4SM PRFG FEW130 FEW230 18/18 A2992 RMK ACC1CI1 ACC T VIS E 2 1/2 TWR VIS 15 SLP134 DENSITY ALT 700FT=
SPECI
LIEU
CYMX - MONTREAL INTL (MIRABEL)/QC
DATE - HEURE
09 JUILLET 2020 - 1003 UTC
VENT
CALME
VISIBILITE
4 MILLES TERR.
PORTEE VISUELLE DE PISTE
METEO
COUVERTURE PARTIELLE DE BROUILLARD
NEBULOSITE
QUELQUES NUAGES (1/8 - 2/8) 13000  PI
QUELQUES NUAGES (1/8 - 2/8) 23000  PI
TEMP / PT DE ROSEE
18 C / 18 C
ALTIMETRE
29.92 PO HG
TEMPS RECENT
CISAILLEMENT

SPECI CYMX 090945Z 00000KT 2 1/2SM PRFG FEW120 FEW230 18/18 A2992 RMK ACC1CI1 A TR CI TR TWR VIS 15 SLP132 DENSITY ALT 800FT=
SPECI
LIEU
CYMX - MONTREAL INTL (MIRABEL)/QC
DATE - HEURE
09 JUILLET 2020 - 0945 UTC
VENT
CALME
VISIBILITE
2 1/2 MILLES TERR.
PORTEE VISUELLE DE PISTE
METEO
COUVERTURE PARTIELLE DE BROUILLARD
NEBULOSITE
QUELQUES NUAGES (1/8 - 2/8) 12000  PI
QUELQUES NUAGES (1/8 - 2/8) 23000  PI
TEMP / PT DE ROSEE
18 C / 18 C
ALTIMETRE
29.92 PO HG
TEMPS RECENT
CISAILLEMENT

METAR CYMX 090900Z 00000KT 15SM PRFG FEW006 FEW210 18/18 A2991 RMK ST1CI1 CI TR LP130 DENSITY ALT 700FT=
METAR
LIEU
CYMX - MONTREAL INTL (MIRABEL)/QC
DATE - HEURE
09 JUILLET 2020 - 0900 UTC
VENT
CALME
VISIBILITE
15 MILLES TERR.
PORTEE VISUELLE DE PISTE
METEO
COUVERTURE PARTIELLE DE BROUILLARD
NEBULOSITE
QUELQUES NUAGES (1/8 - 2/8) 600  PI
QUELQUES NUAGES (1/8 - 2/8) 21000  PI
TEMP / PT DE ROSEE
18 C / 18 C
ALTIMETRE
29.91 PO HG
TEMPS RECENT
CISAILLEMENT

TAF CYMX 091138Z 0912/1012 VRB03KT P6SM FEW070 SCT250 TEMPO 0912/0913 4SM BR FM091800 26007KT P6SM SCT070 FM100000 VRB03KT P6SM SKC PROB30 1008/1011 1/2SM FG SCT002 RMK NXT FCST BY 091800Z=
TAF
LIEU

CYMX - MONTREAL INTL (MIRABEL)/QC
VALIDITE [UTC]
09 JUL - 1138 à
10 JUL - 1200
 
PERIODES
[UTC]
VENT
[DEGRES VRAIS]
VISIBILITE
[MILLES TERR.]
METEO
NEBULOSITE
[PIEDS AGL]
 
09 JUL - 1200 à
09 JUL - 1800
VARIABLE @ 3 NOEUDS
6+
---
7000 QUELQUES
25000 EPARS
CHANGEMENTS TEMPORAIRES
09 JUL - 1200 à
09 JUL - 1300
 
4
BRUME
 
 
09 JUL - 1800 à
10 JUL - 0000
260 @ 7 NOEUDS
6+
---
7000 EPARS
 
10 JUL - 0000 à
10 JUL - 1200
VARIABLE @ 3 NOEUDS
6+
---
CIEL DEGAGE
30% PROBABILITE
10 JUL - 0800 à
10 JUL - 1100
 
1/2
BROUILLARD
200 EPARS
REMARQUES
LA PREVISION SUIVANTE SERA EMISE POUR 1800 UTC LE 09


Votre heure Heure UTC
Données météorologiques fournies par Environnement Canada et NAV CANADA